Airfield :
LOGIN :

Register | Disclaimer

   EN    FR    IT 

 










Legend :    VFR   Marginal VFR   IFR   Intensive IFR   Very Intensive IFR
Visi :
Ceiling :
>= 8 km
>= 3000ft
5 to 8 km
1000 to 3000 ft
1500m to 5 km
500 to 1000 ft
800 to 1500m
200 to 500 ft
< 800m
< 200 ft
Symbols :   Thunderstorms  Fog  Heavy snow  Heavy precipitations  Wind > 20 kt
SIGMETs :     Misc.  Thunderstorms  Icing  Turbulence  Mountain Waves  Volcanic Ashes






- Airport Elevation : 1649 ft
- IATA code : HHN


EDFH - Frankfurt-Hahn Rhineland-Palatinate

CURRENT METAR :
  • 261120Z 29009KT 260V320 0300 R21/0900D FZFG VV/// M02/M02 Q1031

EXPIRED METARs :
  • 261050Z 28008KT 250V310 0400 R21/1400U FZFG VV/// M02/M02 Q1031
  • 261020Z 27010KT 0400 R21/1200U FZFG VV/// M02/M02 Q1031
  • 260950Z 27009KT 0400 R21/0900N FZFG VV/// M02/M02 Q1031
  • 260920Z 28008KT 240V310 0200 R21/0550N FZFG VV/// M02/M02 Q1030
  • 260850Z 28007KT 0300 R21/0800D FZFG VV/// M02/M02 Q1030

TAF TAF EDFH
Valid from the 26 at 12:00 until the 27 at 12:00 UTC


261100Z 2612/2712 27009KT 0300 FZFG VV000
TEMPO 2612/2618 0800 FZFG OVC001
PROB30
TEMPO 2623/2708 -FZDZ
BECMG 2707/2709 26015G25KT
BECMG 2708/2712 2000 -DZ BR OVC004



MET'MAP, your aeronautical weather chart ! - Copyright ORBIFLY December 2007 - Disclaimer

ORBIFLY MET'MAP TEAM :

Programming & Development : Alexandra Zaïnal
Original concept : Baudouin d'Aumeries
Technical & hardware support : Manuel Goepfert
Assistance : Marc-Olivier Méhu

Contact : metmap@orbifly.com




SOURCES & CREDITS :

   NOAA